Accord, Massachusetts
Current Conditions -  °F | °C
As of 7:27 AM on Monday 24 Nov 2014 (Local Time) from KBOS Reporting Station
Moderate Rain Moderate Rain  
Wind Chill: 54°   Ceiling: 1300
Heat Index: 54°   Visibility: 2.5mi
Dew Point: 54°   Wind: 23mph
Humidity: 100%   Direction: 150°SSE
Pressure: 29.83"   Gusts: NA
Location:  42.17°N, 70.88°W
Report Text: KBOS 241227Z 15020KT 2 1/2SM RA BR BKN013 OVC025 12/12 A2983 RMK AO2 PRESFR P0005
Loading
Personal Weather Stations






























Interactive Weather Map New forecast layout! Learn more

10-Day Weather Forecast

Advertisements
Track Severe Weather on mobile